Time;durP1;ratioP1;P1;durP2;ratioP2;P2;SDS_P1;SDS_P2;PMS_P1;PMS_P2;Temp;Humidity;BMP_temperature;BMP_pressure;BME280_temperature;BME280_humidity;BME280_pressure;Samples;Min_cycle;Max_cycle;Signal;HPM_P1;HPM_P2
2023/12/15 00:00:00;;;;;;;14.13;6.03;;;-3.80;99.90;;;;;;4988601;28;20188;-82
2023/12/15 00:02:37;;;;;;;14.30;5.97;;;-3.80;99.90;;;;;;4990362;28;20210;-83
2023/12/15 00:05:05;;;;;;;14.57;6.15;;;-3.70;99.90;;;;;;4990658;28;20937;-84
2023/12/15 00:07:32;;;;;;;12.88;6.20;;;-3.70;99.90;;;;;;4973633;28;20657;-83
2023/12/15 00:10:00;;;;;;;17.15;6.53;;;-3.70;99.90;;;;;;4990600;28;20207;-82
2023/12/15 00:12:27;;;;;;;12.63;5.47;;;-3.70;99.90;;;;;;4990669;28;20195;-83
2023/12/15 00:14:55;;;;;;;15.23;6.78;;;-3.70;99.90;;;;;;4990362;28;20238;-82
2023/12/15 00:17:22;;;;;;;15.98;6.22;;;-3.70;99.90;;;;;;4990166;28;20186;-82
2023/12/15 00:19:51;;;;;;;14.82;6.80;;;-3.70;99.90;;;;;;4988804;28;20529;-78
2023/12/15 00:22:19;;;;;;;13.48;6.28;;;-3.60;99.90;;;;;;4988512;28;20226;-80
2023/12/15 00:24:46;;;;;;;14.95;6.00;;;-3.60;99.90;;;;;;4989798;28;20711;-81
2023/12/15 00:27:13;;;;;;;16.05;6.78;;;-3.60;99.90;;;;;;4987300;28;20879;-81
2023/12/15 00:29:41;;;;;;;15.57;7.22;;;-3.60;99.90;;;;;;4974789;28;20573;-82
2023/12/15 00:32:08;;;;;;;17.95;7.10;;;-3.60;99.90;;;;;;4978820;28;20191;-83
2023/12/15 00:34:37;;;;;;;14.70;7.32;;;-3.60;99.90;;;;;;4961216;28;20264;-83
2023/12/15 00:37:04;;;;;;;16.25;6.65;;;-3.60;99.90;;;;;;4980043;28;20195;-82
2023/12/15 00:39:36;;;;;;;14.25;6.32;;;-3.60;99.90;;;;;;4978995;28;20199;-82
2023/12/15 00:42:05;;;;;;;15.52;6.32;;;-3.60;99.90;;;;;;4983180;28;20628;-81
2023/12/15 00:44:35;;;;;;;14.07;5.82;;;-3.60;99.90;;;;;;4987531;28;20196;-81
2023/12/15 00:47:03;;;;;;;15.15;6.88;;;-3.60;99.90;;;;;;4972090;28;20196;-83
2023/12/15 00:49:30;;;;;;;16.05;7.10;;;-3.50;99.90;;;;;;4970192;28;20188;-83
2023/12/15 00:51:58;;;;;;;14.90;7.05;;;-3.50;99.90;;;;;;4952237;28;20200;-83
2023/12/15 00:54:26;;;;;;;13.05;6.30;;;-3.50;99.90;;;;;;4970140;28;20184;-83
2023/12/15 00:56:53;;;;;;;12.93;6.43;;;-3.50;99.90;;;;;;4952925;28;20636;-83
2023/12/15 00:59:20;;;;;;;12.90;6.15;;;-3.50;99.90;;;;;;4969945;28;20920;-84
2023/12/15 01:01:48;;;;;;;13.98;6.70;;;-3.50;99.90;;;;;;4972324;28;20610;-82
2023/12/15 01:04:16;;;;;;;16.35;7.50;;;-3.50;99.90;;;;;;4967043;28;20215;-81
2023/12/15 01:06:43;;;;;;;20.52;7.72;;;-3.50;99.90;;;;;;4967120;28;20562;-83
2023/12/15 01:09:11;;;;;;;13.93;7.00;;;-3.50;99.90;;;;;;4968197;28;20617;-84
2023/12/15 01:11:38;;;;;;;16.38;7.15;;;-3.50;99.90;;;;;;4970388;28;20250;-82
2023/12/15 01:14:06;;;;;;;15.02;6.70;;;-3.50;99.90;;;;;;4970141;28;20191;-81
2023/12/15 01:16:33;;;;;;;13.52;6.45;;;-3.50;99.90;;;;;;4970200;28;20321;-82
2023/12/15 01:19:01;;;;;;;15.13;6.82;;;-3.50;99.90;;;;;;4970210;28;20192;-82
2023/12/15 01:21:28;;;;;;;14.55;6.53;;;-3.50;99.90;;;;;;4970042;28;20188;-83
2023/12/15 01:23:56;;;;;;;15.40;6.82;;;-3.50;99.90;;;;;;4970018;28;20226;-83
2023/12/15 01:26:23;;;;;;;12.77;6.40;;;-3.50;99.90;;;;;;4970224;28;20614;-82
2023/12/15 01:28:51;;;;;;;13.60;6.80;;;-3.50;99.90;;;;;;4952911;28;20220;-84
2023/12/15 01:31:18;;;;;;;15.75;7.68;;;-3.40;99.90;;;;;;4969798;28;20203;-81
2023/12/15 01:33:46;;;;;;;14.80;7.80;;;-3.40;99.90;;;;;;4969949;28;20871;-82
2023/12/15 01:36:13;;;;;;;19.45;7.95;;;-3.40;99.90;;;;;;4969926;28;20269;-81
2023/12/15 01:38:41;;;;;;;14.57;7.07;;;-3.40;99.90;;;;;;4969746;28;20192;-82
2023/12/15 01:41:08;;;;;;;16.40;6.93;;;-3.40;99.90;;;;;;4969743;28;20522;-83
2023/12/15 01:43:35;;;;;;;18.27;8.02;;;-3.40;99.90;;;;;;4969762;28;20200;-84
2023/12/15 01:46:03;;;;;;;19.40;8.70;;;-3.30;99.90;;;;;;4969897;28;20219;-82
2023/12/15 01:48:41;;;;;;;15.23;7.38;;;-3.30;99.90;;;;;;4969859;28;20267;-83
2023/12/15 01:51:08;;;;;;;14.98;7.13;;;-3.30;99.90;;;;;;4969759;28;20204;-82
2023/12/15 01:53:36;;;;;;;18.40;7.75;;;-3.30;99.90;;;;;;4969748;28;20717;-84
2023/12/15 01:56:07;;;;;;;15.88;7.32;;;-3.30;99.90;;;;;;4967824;28;20188;-83
2023/12/15 01:58:34;;;;;;;15.35;7.82;;;-3.30;99.90;;;;;;4969415;28;20184;-82
2023/12/15 02:01:02;;;;;;;14.70;7.57;;;-3.30;99.90;;;;;;4970059;28;20184;-81
2023/12/15 02:03:30;;;;;;;17.83;7.93;;;-3.30;99.90;;;;;;4970143;28;20239;-81
2023/12/15 02:05:57;;;;;;;17.15;8.20;;;-3.30;99.90;;;;;;4971592;28;20188;-83
2023/12/15 02:08:25;;;;;;;16.40;7.85;;;-3.30;99.90;;;;;;4973062;28;20191;-81
2023/12/15 02:10:53;;;;;;;14.23;6.93;;;-3.30;99.90;;;;;;4972935;28;20234;-82
2023/12/15 02:13:20;;;;;;;12.32;6.93;;;-3.20;99.90;;;;;;4972939;28;20188;-81
2023/12/15 02:15:48;;;;;;;16.13;7.18;;;-3.30;99.90;;;;;;4971732;28;20260;-82
2023/12/15 02:18:15;;;;;;;16.45;7.72;;;-3.30;99.90;;;;;;4969918;28;20189;-82
2023/12/15 02:20:43;;;;;;;16.98;7.38;;;-3.30;99.90;;;;;;4970168;28;20276;-83
2023/12/15 02:23:10;;;;;;;16.17;6.75;;;-3.30;99.90;;;;;;4969917;28;20674;-81
2023/12/15 02:25:37;;;;;;;12.52;5.75;;;-3.30;99.90;;;;;;4992189;28;20179;-83
2023/12/15 02:28:05;;;;;;;15.23;6.38;;;-3.30;99.90;;;;;;4975655;28;20996;-80
2023/12/15 02:30:32;;;;;;;10.65;5.97;;;-3.30;99.90;;;;;;4970431;28;20682;-83
2023/12/15 02:33:00;;;;;;;15.85;6.85;;;-3.30;99.90;;;;;;4980328;28;20195;-83
2023/12/15 02:35:28;;;;;;;15.65;6.60;;;-3.30;99.90;;;;;;4989937;28;20282;-84
2023/12/15 02:37:55;;;;;;;13.70;6.13;;;-3.30;99.90;;;;;;4991590;28;20585;-84
2023/12/15 02:40:23;;;;;;;12.32;5.68;;;-3.20;99.90;;;;;;4971257;28;20203;-81
2023/12/15 02:42:50;;;;;;;12.13;6.32;;;-3.20;99.90;;;;;;4988822;28;20195;-84
2023/12/15 02:45:18;;;;;;;11.70;5.20;;;-3.20;99.90;;;;;;4991183;28;20408;-82
2023/12/15 02:47:45;;;;;;;12.98;5.93;;;-3.20;99.90;;;;;;4989596;28;20194;-82
2023/12/15 02:50:13;;;;;;;10.35;5.18;;;-3.20;99.90;;;;;;4974677;28;20282;-83
2023/12/15 02:52:40;;;;;;;10.98;5.60;;;-3.30;99.90;;;;;;4991560;28;20281;-84
2023/12/15 02:55:10;;;;;;;13.18;6.28;;;-3.30;99.90;;;;;;4989275;28;20188;-81
2023/12/15 02:57:38;;;;;;;12.18;5.63;;;-3.30;99.90;;;;;;4991791;28;20194;-83
2023/12/15 03:00:07;;;;;;;13.40;5.28;;;-3.20;99.90;;;;;;4991445;28;20265;-82
2023/12/15 03:02:34;;;;;;;12.82;6.40;;;-3.20;99.90;;;;;;4992053;28;20211;-81
2023/12/15 03:05:01;;;;;;;11.63;5.45;;;-3.20;99.90;;;;;;4991696;28;20270;-82
2023/12/15 03:07:29;;;;;;;8.32;4.90;;;-3.20;99.90;;;;;;4991845;28;20193;-84
2023/12/15 03:09:57;;;;;;;10.52;5.10;;;-3.20;99.90;;;;;;4990618;28;20187;-81
2023/12/15 03:12:24;;;;;;;12.10;5.57;;;-3.20;99.90;;;;;;4991354;28;20298;-82
2023/12/15 03:14:52;;;;;;;12.15;5.60;;;-3.20;99.90;;;;;;4988109;28;20295;-82
2023/12/15 03:17:19;;;;;;;8.75;5.32;;;-3.20;99.90;;;;;;4988538;28;20183;-83
2023/12/15 03:19:47;;;;;;;11.18;5.32;;;-3.20;99.90;;;;;;4988119;28;20192;-81
2023/12/15 03:22:14;;;;;;;11.38;5.35;;;-3.20;99.90;;;;;;4987934;28;20298;-82
2023/12/15 03:24:41;;;;;;;11.73;5.60;;;-3.20;99.90;;;;;;4970009;28;20237;-83
2023/12/15 03:27:09;;;;;;;11.90;5.75;;;-3.20;99.90;;;;;;4988194;28;20290;-82
2023/12/15 03:29:36;;;;;;;9.55;5.15;;;-3.20;99.90;;;;;;4971108;28;20191;-81
2023/12/15 03:32:04;;;;;;;12.70;5.53;;;-3.20;99.90;;;;;;4987569;28;20298;-81
2023/12/15 03:34:31;;;;;;;12.43;5.47;;;-3.20;99.90;;;;;;4970429;28;20199;-82
2023/12/15 03:36:59;;;;;;;12.20;5.72;;;-3.20;99.90;;;;;;4987785;28;20183;-83
2023/12/15 03:39:26;;;;;;;10.20;5.45;;;-3.20;99.90;;;;;;4988302;28;20922;-81
2023/12/15 03:41:53;;;;;;;10.50;5.53;;;-3.20;99.90;;;;;;4987495;28;20189;-82
2023/12/15 03:44:21;;;;;;;9.45;4.57;;;-3.20;99.90;;;;;;4987688;28;20195;-83
2023/12/15 03:46:48;;;;;;;8.80;4.78;;;-3.20;99.90;;;;;;4987270;28;20206;-81
2023/12/15 03:49:16;;;;;;;9.27;5.03;;;-3.20;99.90;;;;;;4987824;28;20217;-82
2023/12/15 03:51:43;;;;;;;11.68;5.43;;;-3.20;99.90;;;;;;4987728;28;20210;-83
2023/12/15 03:54:11;;;;;;;10.23;5.20;;;-3.20;99.90;;;;;;4987485;28;20423;-83
2023/12/15 03:56:38;;;;;;;8.05;4.80;;;-3.20;99.90;;;;;;4987529;28;20649;-83
2023/12/15 03:59:06;;;;;;;10.90;4.95;;;-3.20;99.90;;;;;;4987738;28;20179;-84
2023/12/15 04:01:33;;;;;;;9.82;4.28;;;-3.20;99.90;;;;;;4987628;28;20274;-79
2023/12/15 04:04:01;;;;;;;9.23;4.55;;;-3.20;99.90;;;;;;4987209;28;20191;-83
2023/12/15 04:06:28;;;;;;;10.48;4.40;;;-3.20;99.90;;;;;;4987815;28;20242;-83
2023/12/15 04:08:55;;;;;;;7.68;4.55;;;-3.20;99.90;;;;;;4990379;28;20188;-83
2023/12/15 04:11:23;;;;;;;10.75;4.38;;;-3.20;99.90;;;;;;4990214;28;20210;-83
2023/12/15 04:13:51;;;;;;;9.88;4.75;;;-3.20;99.90;;;;;;4990246;28;20266;-83
2023/12/15 04:16:18;;;;;;;9.60;4.60;;;-3.20;99.90;;;;;;4969445;28;20522;-84
2023/12/15 04:18:46;;;;;;;7.75;4.55;;;-3.20;99.90;;;;;;4967926;28;20671;-81
2023/12/15 04:21:13;;;;;;;7.57;4.00;;;-3.20;99.90;;;;;;4970823;28;20216;-83
2023/12/15 04:23:41;;;;;;;10.90;4.65;;;-3.20;99.90;;;;;;4990138;28;20796;-84
2023/12/15 04:26:08;;;;;;;8.07;4.13;;;-3.20;99.90;;;;;;4989390;28;20197;-83
2023/12/15 04:28:36;;;;;;;7.53;4.10;;;-3.20;99.90;;;;;;4969957;28;20286;-83
2023/12/15 04:31:03;;;;;;;7.85;4.40;;;-3.20;99.90;;;;;;4989113;28;20203;-82
2023/12/15 04:33:31;;;;;;;8.95;4.50;;;-3.20;99.90;;;;;;4970001;28;20951;-82
2023/12/15 04:35:58;;;;;;;8.73;3.83;;;-3.20;99.90;;;;;;4987169;28;20183;-81
2023/12/15 04:38:26;;;;;;;8.63;3.85;;;-3.20;99.90;;;;;;4986881;28;20179;-81
2023/12/15 04:40:53;;;;;;;9.02;4.30;;;-3.20;99.90;;;;;;4986944;28;20195;-81
2023/12/15 04:43:21;;;;;;;8.52;4.63;;;-3.20;99.90;;;;;;4991549;28;20187;-83
2023/12/15 04:45:48;;;;;;;8.75;4.13;;;-3.20;99.90;;;;;;4972889;28;20572;-83
2023/12/15 04:48:16;;;;;;;8.00;4.15;;;-3.20;99.90;;;;;;4990395;28;20195;-81
2023/12/15 04:50:43;;;;;;;7.75;4.03;;;-3.20;99.90;;;;;;4973309;28;20242;-83
2023/12/15 04:53:11;;;;;;;9.48;4.57;;;-3.20;99.90;;;;;;4990873;28;20195;-83
2023/12/15 04:55:38;;;;;;;9.30;4.60;;;-3.20;99.90;;;;;;4990337;28;20183;-84
2023/12/15 04:58:07;;;;;;;7.53;4.22;;;-3.20;99.90;;;;;;4969661;28;20301;-82
2023/12/15 05:00:34;;;;;;;9.13;4.32;;;-3.20;99.90;;;;;;4987371;28;20191;-84
2023/12/15 05:03:02;;;;;;;8.80;4.05;;;-3.20;99.90;;;;;;4969265;28;20195;-82
2023/12/15 05:05:29;;;;;;;7.25;3.92;;;-3.20;99.90;;;;;;4987078;28;20187;-82
2023/12/15 05:07:57;;;;;;;10.98;4.28;;;-3.20;99.90;;;;;;4987214;28;20202;-84
2023/12/15 05:10:25;;;;;;;7.90;3.90;;;-3.10;99.90;;;;;;4989551;28;20560;-84
2023/12/15 05:12:52;;;;;;;9.95;4.80;;;-3.20;99.90;;;;;;4990329;28;20211;-83
2023/12/15 05:15:20;;;;;;;8.98;4.75;;;-3.20;99.90;;;;;;4990196;28;20190;-81
2023/12/15 05:17:48;;;;;;;8.55;4.50;;;-3.20;99.90;;;;;;4973046;28;20769;-83
2023/12/15 05:20:15;;;;;;;9.43;4.38;;;-3.20;99.90;;;;;;4990420;28;20187;-83
2023/12/15 05:22:43;;;;;;;10.55;4.72;;;-3.20;99.90;;;;;;4954620;28;20195;-81
2023/12/15 05:25:10;;;;;;;8.75;4.15;;;-3.20;99.90;;;;;;4990155;28;20227;-83
2023/12/15 05:27:38;;;;;;;7.20;3.95;;;-3.20;99.90;;;;;;4989179;28;20721;-81
2023/12/15 05:30:06;;;;;;;9.40;4.63;;;-3.10;99.90;;;;;;4988385;28;20847;-82
2023/12/15 05:32:34;;;;;;;11.30;4.70;;;-3.20;99.90;;;;;;4970086;28;20711;-83
2023/12/15 05:35:02;;;;;;;9.35;4.38;;;-3.20;99.90;;;;;;4988636;28;20188;-81
2023/12/15 05:37:31;;;;;;;10.25;5.13;;;-3.20;99.90;;;;;;4984373;28;20188;-84
2023/12/15 05:39:58;;;;;;;13.48;5.07;;;-3.20;99.90;;;;;;4962391;28;20203;-83
2023/12/15 05:42:26;;;;;;;12.20;4.97;;;-3.20;99.90;;;;;;4988035;28;20269;-82
2023/12/15 05:44:53;;;;;;;10.88;5.50;;;-3.20;99.90;;;;;;4991122;28;20274;-82
2023/12/15 05:47:21;;;;;;;14.23;5.53;;;-3.20;99.90;;;;;;4984188;28;20553;-82
2023/12/15 05:49:48;;;;;;;10.30;5.18;;;-3.20;99.90;;;;;;4972434;28;20286;-80
2023/12/15 05:52:16;;;;;;;11.52;5.65;;;-3.20;99.90;;;;;;4954408;28;20262;-81
2023/12/15 05:54:43;;;;;;;11.77;5.32;;;-3.20;99.90;;;;;;4972384;28;20180;-83
2023/12/15 05:57:11;;;;;;;11.98;5.85;;;-3.20;99.90;;;;;;4974836;28;20192;-82
2023/12/15 05:59:40;;;;;;;12.43;5.82;;;-3.20;99.90;;;;;;4993409;28;20191;-82
2023/12/15 06:02:09;;;;;;;16.98;6.30;;;-3.20;99.90;;;;;;4976209;28;20198;-83
2023/12/15 06:04:37;;;;;;;11.10;4.82;;;-3.20;99.90;;;;;;4993438;28;20198;-83
2023/12/15 06:07:04;;;;;;;11.10;5.57;;;-3.20;99.90;;;;;;4992818;28;20219;-83
2023/12/15 06:09:32;;;;;;;11.40;5.55;;;-3.20;99.90;;;;;;4993638;28;20195;-81
2023/12/15 06:12:04;;;;;;;11.93;5.95;;;-3.20;99.90;;;;;;4993182;28;20218;-83
2023/12/15 06:14:32;;;;;;;10.80;5.40;;;-3.20;99.90;;;;;;4974959;28;20285;-82
2023/12/15 06:17:00;;;;;;;12.52;5.88;;;-3.20;99.90;;;;;;4992910;28;20182;-82
2023/12/15 06:19:28;;;;;;;11.82;5.53;;;-3.20;99.90;;;;;;4993038;28;20188;-83
2023/12/15 06:21:56;;;;;;;10.60;4.82;;;-3.20;99.90;;;;;;4964438;28;20219;-82
2023/12/15 06:24:23;;;;;;;10.07;5.28;;;-3.20;99.90;;;;;;4973668;28;20239;-83
2023/12/15 06:26:51;;;;;;;10.52;5.15;;;-3.30;99.90;;;;;;4981456;28;20242;-83
2023/12/15 06:29:18;;;;;;;12.00;5.25;;;-3.20;99.90;;;;;;4977626;28;20196;-83
2023/12/15 06:31:46;;;;;;;11.65;5.47;;;-3.20;99.90;;;;;;4981133;28;20211;-83
2023/12/15 06:34:14;;;;;;;12.15;5.65;;;-3.20;99.90;;;;;;4978395;28;20246;-83
2023/12/15 06:36:42;;;;;;;11.88;5.40;;;-3.20;99.90;;;;;;4981633;28;20273;-82
2023/12/15 06:39:09;;;;;;;13.48;5.20;;;-3.20;99.90;;;;;;4979758;28;20934;-82
2023/12/15 06:41:37;;;;;;;9.85;4.60;;;-3.20;99.90;;;;;;4974696;28;20689;-82
2023/12/15 06:44:05;;;;;;;12.88;6.05;;;-3.20;99.90;;;;;;4981458;28;20199;-83
2023/12/15 06:46:36;;;;;;;12.02;4.82;;;-3.20;99.90;;;;;;4989086;28;20942;-84
2023/12/15 06:49:04;;;;;;;12.75;5.70;;;-3.20;99.90;;;;;;4971251;28;20653;-82
2023/12/15 06:51:31;;;;;;;15.18;6.15;;;-3.20;99.90;;;;;;4980188;28;20291;-82
2023/12/15 06:53:59;;;;;;;13.45;6.50;;;-3.30;99.90;;;;;;4975922;28;20196;-81
2023/12/15 06:56:26;;;;;;;11.95;5.90;;;-3.30;99.90;;;;;;4976314;28;20187;-83
2023/12/15 06:58:54;;;;;;;12.75;6.18;;;-3.30;99.90;;;;;;4980907;28;20197;-81
2023/12/15 07:01:21;;;;;;;13.18;6.15;;;-3.20;99.90;;;;;;4986322;28;20199;-84
2023/12/15 07:03:49;;;;;;;10.80;5.57;;;-3.20;99.90;;;;;;4981238;28;20191;-83
2023/12/15 07:06:18;;;;;;;10.10;5.03;;;-3.20;99.90;;;;;;4977265;28;20713;-83
2023/12/15 07:08:50;;;;;;;14.15;6.03;;;-3.30;99.90;;;;;;4968341;28;20184;-83
2023/12/15 07:11:18;;;;;;;12.07;5.70;;;-3.30;99.90;;;;;;4982707;28;20226;-81
2023/12/15 07:13:45;;;;;;;13.18;5.95;;;-3.30;99.90;;;;;;4985595;28;20251;-84
2023/12/15 07:16:13;;;;;;;13.30;6.07;;;-3.30;99.90;;;;;;4972258;28;20203;-83
2023/12/15 07:18:41;;;;;;;12.88;5.50;;;-3.30;99.90;;;;;;4975718;28;20973;-83
2023/12/15 07:21:09;;;;;;;11.43;5.93;;;-3.30;99.90;;;;;;4981719;28;20191;-84
2023/12/15 07:23:37;;;;;;;9.27;5.15;;;-3.20;99.90;;;;;;4978518;28;20235;-83
2023/12/15 07:26:05;;;;;;;11.77;5.57;;;-3.20;99.90;;;;;;4977948;28;20542;-83
2023/12/15 07:28:35;;;;;;;14.82;6.15;;;-3.20;99.90;;;;;;4979178;28;20213;-82
2023/12/15 07:31:03;;;;;;;12.27;6.20;;;-3.20;99.90;;;;;;4958749;28;20215;-82
2023/12/15 07:33:30;;;;;;;13.00;6.25;;;-3.20;99.90;;;;;;4958646;28;20250;-81
2023/12/15 07:35:58;;;;;;;10.43;5.28;;;-3.20;99.90;;;;;;4981115;28;20661;-80
2023/12/15 07:38:25;;;;;;;14.85;6.85;;;-3.20;99.90;;;;;;4976616;28;20275;-80
2023/12/15 07:40:54;;;;;;;11.95;5.97;;;-3.20;99.90;;;;;;4981286;28;20270;-84
2023/12/15 07:43:22;;;;;;;14.82;6.32;;;-3.20;99.90;;;;;;4979434;28;20195;-82
2023/12/15 07:45:49;;;;;;;12.93;6.53;;;-3.20;99.90;;;;;;4979885;28;20296;-83
2023/12/15 07:48:16;;;;;;;13.15;6.53;;;-3.20;99.90;;;;;;4980181;28;20569;-83
2023/12/15 07:50:45;;;;;;;14.85;6.63;;;-3.30;99.90;;;;;;4982406;28;20203;-82
2023/12/15 07:53:12;;;;;;;13.95;6.55;;;-3.20;99.90;;;;;;4961133;28;20207;-83
2023/12/15 07:55:40;;;;;;;13.82;6.88;;;-3.20;99.90;;;;;;4979777;28;20219;-83
2023/12/15 07:58:10;;;;;;;13.20;6.47;;;-3.20;99.90;;;;;;4983125;28;20183;-83
2023/12/15 08:00:38;;;;;;;14.55;6.68;;;-3.20;99.90;;;;;;4963342;28;20196;-80
2023/12/15 08:03:05;;;;;;;14.65;6.90;;;-3.30;99.90;;;;;;4977549;28;20206;-82
2023/12/15 08:05:32;;;;;;;16.90;7.95;;;-3.30;99.90;;;;;;4980501;28;20204;-83
2023/12/15 08:08:00;;;;;;;15.30;7.13;;;-3.20;99.90;;;;;;4983487;28;20692;-82
2023/12/15 08:10:29;;;;;;;15.30;7.03;;;-3.20;99.90;;;;;;4981937;28;20245;-82
2023/12/15 08:12:57;;;;;;;17.60;7.20;;;-3.20;99.90;;;;;;4978321;28;20629;-83
2023/12/15 08:15:24;;;;;;;18.00;7.75;;;-3.20;99.90;;;;;;4976165;28;20192;-83
2023/12/15 08:17:51;;;;;;;16.58;7.18;;;-3.10;99.90;;;;;;4981379;28;20187;-78
2023/12/15 08:20:19;;;;;;;16.70;7.88;;;-3.10;99.90;;;;;;4977873;28;20194;-80
2023/12/15 08:22:46;;;;;;;13.25;7.07;;;-3.10;99.90;;;;;;4982283;28;20567;-82
2023/12/15 08:25:14;;;;;;;13.45;6.70;;;-3.10;99.90;;;;;;4978731;28;20271;-81
2023/12/15 08:27:41;;;;;;;14.13;6.88;;;-3.10;99.90;;;;;;4962645;28;20192;-83
2023/12/15 08:30:09;;;;;;;14.20;6.20;;;-3.10;99.90;;;;;;4975015;28;20191;-80
2023/12/15 08:32:37;;;;;;;15.27;6.72;;;-3.00;99.90;;;;;;4978684;28;20230;-82
2023/12/15 08:35:05;;;;;;;13.93;7.30;;;-3.00;99.90;;;;;;4976118;28;20198;-80
2023/12/15 08:37:33;;;;;;;13.80;6.47;;;-3.00;99.90;;;;;;4990604;28;20216;-83
2023/12/15 08:40:01;;;;;;;13.35;6.00;;;-3.00;99.90;;;;;;4985747;28;20195;-84
2023/12/15 08:42:29;;;;;;;16.23;6.75;;;-3.00;99.90;;;;;;4979760;28;20203;-81
2023/12/15 08:44:57;;;;;;;17.40;6.90;;;-2.90;99.90;;;;;;4983506;28;20202;-80
2023/12/15 08:47:24;;;;;;;12.60;6.90;;;-3.00;99.90;;;;;;4988051;28;20262;-82
2023/12/15 08:49:52;;;;;;;12.80;6.25;;;-3.00;99.90;;;;;;4989052;28;20191;-82
2023/12/15 08:52:19;;;;;;;16.23;7.22;;;-2.90;99.90;;;;;;4986629;28;20580;-83
2023/12/15 08:54:46;;;;;;;15.40;7.57;;;-2.80;99.90;;;;;;4973803;28;20196;-82
2023/12/15 08:57:14;;;;;;;15.55;7.57;;;-2.80;99.90;;;;;;4988931;28;20183;-81
2023/12/15 08:59:42;;;;;;;14.65;7.03;;;-2.80;99.90;;;;;;4989610;28;20661;-81
2023/12/15 09:02:09;;;;;;;17.02;7.68;;;-2.80;99.90;;;;;;4988640;28;20274;-83
2023/12/15 09:04:37;;;;;;;15.18;6.43;;;-2.80;99.90;;;;;;4990258;28;20567;-82
2023/12/15 09:07:17;;;;;;;14.07;7.03;;;-2.80;99.90;;;;;;4990274;28;20623;-82
2023/12/15 09:09:44;;;;;;;14.95;6.55;;;-2.80;99.90;;;;;;4988613;28;20548;-82
2023/12/15 09:12:12;;;;;;;14.25;7.50;;;-2.80;99.90;;;;;;4990747;28;20199;-82
2023/12/15 09:14:39;;;;;;;16.50;7.65;;;-2.70;99.90;;;;;;4994035;28;20187;-83
2023/12/15 09:17:11;;;;;;;17.92;7.93;;;-2.70;99.90;;;;;;4993252;28;20271;-80
2023/12/15 09:19:40;;;;;;;16.80;8.07;;;-2.70;99.90;;;;;;4992915;28;20175;-82
2023/12/15 09:22:07;;;;;;;16.27;7.90;;;-2.60;99.90;;;;;;4993962;28;20187;-83
2023/12/15 09:24:35;;;;;;;15.40;7.03;;;-2.60;99.90;;;;;;4993970;28;20249;-83
2023/12/15 09:27:03;;;;;;;16.30;7.07;;;-2.60;99.90;;;;;;4993643;28;20579;-82
2023/12/15 09:29:34;;;;;;;18.50;7.93;;;-2.60;99.90;;;;;;4992235;28;20266;-82
2023/12/15 09:32:03;;;;;;;23.30;8.05;;;-2.60;99.90;;;;;;4993629;28;20190;-82
2023/12/15 09:34:30;;;;;;;16.02;7.70;;;-2.50;99.90;;;;;;4992091;28;20183;-83
2023/12/15 09:36:58;;;;;;;14.82;7.65;;;-2.50;99.90;;;;;;4992514;28;20213;-82
2023/12/15 09:39:25;;;;;;;16.17;7.82;;;-2.50;99.90;;;;;;4993102;28;20202;-81
2023/12/15 09:41:53;;;;;;;15.70;7.93;;;-2.50;99.90;;;;;;4992886;28;20561;-83
2023/12/15 09:44:21;;;;;;;15.77;7.82;;;-2.50;99.90;;;;;;4992762;28;20184;-82
2023/12/15 09:46:48;;;;;;;17.05;8.20;;;-2.50;99.90;;;;;;4990920;28;20215;-81
2023/12/15 09:49:17;;;;;;;17.08;7.82;;;-2.50;99.90;;;;;;4993633;28;20753;-83
2023/12/15 09:51:49;;;;;;;13.05;6.82;;;-2.40;99.90;;;;;;4992388;28;20257;-83
2023/12/15 09:54:19;;;;;;;15.07;7.20;;;-2.40;99.90;;;;;;4993574;28;20682;-83
2023/12/15 09:56:47;;;;;;;14.25;7.25;;;-2.40;99.90;;;;;;4993386;28;20180;-82
2023/12/15 09:59:14;;;;;;;16.55;8.55;;;-2.40;99.90;;;;;;4992132;28;20175;-83
2023/12/15 10:01:42;;;;;;;13.25;7.45;;;-2.40;99.90;;;;;;4993277;28;20186;-82
2023/12/15 10:04:09;;;;;;;18.05;8.23;;;-2.40;99.90;;;;;;4990475;28;20187;-82
2023/12/15 10:06:37;;;;;;;14.80;7.05;;;-2.30;99.90;;;;;;4990016;28;20187;-84
2023/12/15 10:09:13;;;;;;;15.10;7.57;;;-2.30;99.90;;;;;;4989978;28;20194;-83
2023/12/15 10:11:44;;;;;;;13.68;6.97;;;-2.30;99.90;;;;;;4990829;28;20642;-83
2023/12/15 10:14:14;;;;;;;14.85;7.07;;;-2.30;99.90;;;;;;4978185;28;20200;-84
2023/12/15 10:16:42;;;;;;;15.68;7.63;;;-2.20;99.90;;;;;;4985366;28;20274;-82
2023/12/15 10:19:09;;;;;;;13.10;6.00;;;-2.20;99.90;;;;;;4956456;28;20188;-82
2023/12/15 10:21:37;;;;;;;9.90;5.72;;;-2.20;99.90;;;;;;4973167;28;20191;-85
2023/12/15 10:24:25;;;;;;;12.25;6.72;;;-2.20;99.90;;;;;;4972576;28;20228;-82
2023/12/15 10:26:52;;;;;;;13.75;7.07;;;-2.20;99.90;;;;;;4973325;28;20930;-83
2023/12/15 10:29:23;;;;;;;14.77;6.55;;;-2.20;99.90;;;;;;4983704;28;20202;-82
2023/12/15 10:31:51;;;;;;;13.07;6.35;;;-2.10;99.90;;;;;;4992767;28;20192;-82
2023/12/15 10:34:23;;;;;;;14.00;6.85;;;-2.10;99.90;;;;;;4992763;28;20211;-82
2023/12/15 10:36:52;;;;;;;16.10;7.10;;;-2.10;99.90;;;;;;4990153;28;20180;-81
2023/12/15 10:39:20;;;;;;;17.23;7.40;;;-2.10;99.90;;;;;;4989659;28;20270;-79
2023/12/15 10:41:48;;;;;;;14.82;6.70;;;-2.10;99.90;;;;;;5004493;28;20195;-82
2023/12/15 10:44:16;;;;;;;16.17;7.25;;;-2.00;99.90;;;;;;4990276;28;20191;-83
2023/12/15 10:46:45;;;;;;;15.85;7.15;;;-2.10;99.90;;;;;;4990981;28;20194;-83
2023/12/15 10:49:13;;;;;;;15.43;7.05;;;-2.00;99.90;;;;;;4992456;28;20194;-82
2023/12/15 10:51:42;;;;;;;14.45;6.78;;;-2.10;99.90;;;;;;4992466;28;20674;-80
2023/12/15 10:54:10;;;;;;;12.98;6.93;;;-2.00;99.90;;;;;;4974651;28;20273;-83
2023/12/15 10:56:38;;;;;;;13.07;6.43;;;-2.00;99.90;;;;;;4992411;28;20190;-82
2023/12/15 10:59:06;;;;;;;11.82;5.47;;;-2.00;99.90;;;;;;4992639;28;20191;-83
2023/12/15 11:01:37;;;;;;;14.73;7.03;;;-2.00;99.90;;;;;;4992769;28;20222;-82
2023/12/15 11:04:31;;;;;;;15.38;6.90;;;-1.90;99.90;;;;;;4975129;28;20642;-83
2023/12/15 11:06:58;;;;;;;13.68;6.03;;;-1.90;99.90;;;;;;4989296;28;20598;-83
2023/12/15 11:09:30;;;;;;;11.18;6.28;;;-2.00;99.90;;;;;;4991534;28;20191;-82
2023/12/15 11:12:39;;;;;;;12.15;5.55;;;-2.00;99.90;;;;;;4988693;28;20318;-82
2023/12/15 11:15:13;;;;;;;12.60;6.50;;;-1.90;99.90;;;;;;4987618;28;20171;-81
2023/12/15 11:17:49;;;;;;;12.38;5.95;;;-1.90;99.90;;;;;;4990355;28;20186;-82
2023/12/15 11:20:20;;;;;;;11.57;5.90;;;-2.00;99.90;;;;;;4990933;28;20549;-83
2023/12/15 11:22:50;;;;;;;12.70;5.72;;;-2.00;99.90;;;;;;4980546;28;20192;-82
2023/12/15 11:25:25;;;;;;;12.20;5.65;;;-2.00;99.90;;;;;;4972742;28;20180;-81
2023/12/15 11:28:30;;;;;;;14.40;5.88;;;-2.00;99.90;;;;;;4980782;28;20194;-82
2023/12/15 11:30:58;;;;;;;13.00;5.78;;;-1.90;99.90;;;;;;4927030;29;20197;-79
2023/12/15 11:33:39;;;;;;;11.32;5.95;;;-1.90;99.90;;;;;;4983380;28;20211;-81
2023/12/15 11:36:13;;;;;;;10.23;5.75;;;-1.90;99.90;;;;;;4991795;28;20178;-82
2023/12/15 11:38:42;;;;;;;13.88;6.75;;;-2.00;99.90;;;;;;4991652;28;20285;-80
2023/12/15 11:41:10;;;;;;;10.98;5.85;;;-1.90;99.90;;;;;;4983914;28;20239;-81
2023/12/15 11:43:40;;;;;;;12.63;6.00;;;-1.90;99.90;;;;;;4985141;28;20202;-79
2023/12/15 11:46:10;;;;;;;9.55;6.00;;;-1.90;99.90;;;;;;4985534;28;20203;-84
2023/12/15 11:48:39;;;;;;;12.90;6.07;;;-1.90;99.90;;;;;;4972130;28;20271;-81
2023/12/15 11:51:10;;;;;;;10.98;6.28;;;-1.90;99.90;;;;;;4970951;28;20962;-85
2023/12/15 11:53:45;;;;;;;10.30;5.60;;;-1.90;99.90;;;;;;4968768;28;20200;-80
2023/12/15 11:56:12;;;;;;;12.60;6.53;;;-1.90;99.90;;;;;;4967962;28;20172;-84
2023/12/15 11:58:40;;;;;;;11.63;5.40;;;-1.90;99.90;;;;;;4952680;28;20222;-82
2023/12/15 12:01:11;;;;;;;13.27;5.88;;;-1.90;99.90;;;;;;4971342;28;20263;-78
2023/12/15 12:03:38;;;;;;;12.68;5.90;;;-2.00;99.90;;;;;;4968648;28;20211;-83
2023/12/15 12:06:08;;;;;;;12.90;5.90;;;-1.90;99.90;;;;;;4970191;28;20188;-82
2023/12/15 12:08:36;;;;;;;10.68;5.65;;;-2.00;99.90;;;;;;4971699;28;20714;-82
2023/12/15 12:11:05;;;;;;;9.40;5.00;;;-1.90;99.90;;;;;;4971503;28;20191;-82
2023/12/15 12:13:39;;;;;;;11.98;5.88;;;-1.90;99.90;;;;;;4954093;28;20219;-82
2023/12/15 12:16:08;;;;;;;12.25;6.15;;;-1.90;99.90;;;;;;4971441;28;20168;-81
2023/12/15 12:18:35;;;;;;;10.25;5.70;;;-1.90;99.90;;;;;;4954416;28;20967;-83
2023/12/15 12:21:09;;;;;;;10.68;5.57;;;-2.00;99.90;;;;;;4971580;28;20187;-82
2023/12/15 12:23:38;;;;;;;10.63;5.22;;;-1.90;99.90;;;;;;4971714;28;20741;-82
2023/12/15 12:26:12;;;;;;;14.20;6.50;;;-1.90;99.90;;;;;;4971953;28;20259;-82
2023/12/15 12:28:50;;;;;;;11.82;5.80;;;-1.90;99.90;;;;;;4971562;28;20822;-84
2023/12/15 12:31:19;;;;;;;12.30;5.70;;;-1.90;99.90;;;;;;4971138;28;20275;-83
2023/12/15 12:33:47;;;;;;;10.40;5.80;;;-2.00;99.90;;;;;;4969710;28;20210;-84
2023/12/15 12:36:16;;;;;;;13.57;6.60;;;-2.00;99.90;;;;;;4969846;28;20199;-82
2023/12/15 12:38:45;;;;;;;14.30;5.82;;;-1.90;99.90;;;;;;4970125;28;20192;-82
2023/12/15 12:41:14;;;;;;;10.43;5.50;;;-1.90;99.90;;;;;;4983193;28;20191;-83
2023/12/15 12:43:42;;;;;;;13.65;5.82;;;-1.90;99.90;;;;;;4990497;28;20550;-83